Time;durP1;ratioP1;P1;durP2;ratioP2;P2;SDS_P1;SDS_P2;PMS_P1;PMS_P2;Temp;Humidity;BMP_temperature;BMP_pressure;BME280_temperature;BME280_humidity;BME280_pressure;Samples;Min_cycle;Max_cycle;Signal;HPM_P1;HPM_P2
2022/11/16 00:02:19;;;;;;;;;82.00;61.67;;;;;7.44;100.00;99032.03;6282018;20;3645115;-59
2022/11/16 00:04:48;;;;;;;;;88.67;70.67;;;;;7.48;100.00;99036.25;6279836;20;3666973;-59
2022/11/16 00:07:18;;;;;;;;;86.00;61.33;;;;;7.39;100.00;99031.44;6278114;20;3664990;-59
2022/11/16 00:09:46;;;;;;;;;94.00;75.00;;;;;7.42;100.00;99033.91;6277127;20;1931545;-59
2022/11/16 00:12:16;;;;;;;;;87.33;64.00;;;;;7.46;100.00;99027.47;6281849;20;3667964;-59
2022/11/16 00:14:45;;;;;;;;;85.33;59.33;;;;;7.61;100.00;99021.22;6281660;20;3654431;-59
2022/11/16 00:17:15;;;;;;;;;84.00;62.33;;;;;7.36;100.00;99027.13;6278126;20;3659714;-59
2022/11/16 00:19:46;;;;;;;;;80.67;58.67;;;;;7.47;100.00;99029.16;6280854;20;3642983;-59
2022/11/16 00:22:16;;;;;;;;;82.67;59.00;;;;;7.37;100.00;99039.56;6278084;20;3660030;-59
2022/11/16 00:24:46;;;;;;;;;83.00;58.67;;;;;7.51;100.00;99036.06;6280157;20;3653554;-58
2022/11/16 00:27:15;;;;;;;;;79.00;60.33;;;;;7.50;100.00;99020.97;6276379;20;3650263;-59
2022/11/16 00:29:45;;;;;;;;;75.33;56.00;;;;;7.46;100.00;99016.78;6275435;20;3626316;-59
2022/11/16 00:32:14;;;;;;;;;81.00;58.33;;;;;7.58;100.00;99020.50;6312607;20;3650236;-59
2022/11/16 00:34:42;;;;;;;;;67.00;45.00;;;;;7.68;100.00;99011.84;6280749;20;2845164;-59
2022/11/16 00:37:11;;;;;;;;;80.00;57.67;;;;;7.46;100.00;99016.78;6278911;20;3631735;-59
2022/11/16 00:39:41;;;;;;;;;84.00;62.00;;;;;7.61;100.00;99009.63;6312189;20;3651363;-59
2022/11/16 00:42:10;;;;;;;;;84.50;60.75;;;;;7.61;100.00;99012.31;6284373;20;4422283;-59
2022/11/16 00:44:40;;;;;;;;;82.75;60.25;;;;;7.72;100.00;99003.66;6310653;20;4403378;-59
2022/11/16 00:47:09;;;;;;;;;71.67;57.00;;;;;7.56;100.00;98999.25;6314282;20;3615016;-60
2022/11/16 00:49:37;;;;;;;;;88.00;61.00;;;;;7.57;100.00;98998.28;6313527;20;1931547;-59
2022/11/16 00:52:07;;;;;;;;;79.33;56.33;;;;;7.60;100.00;98992.75;6281636;20;3650374;-59
2022/11/16 00:54:36;;;;;;;;;88.75;59.25;;;;;7.53;100.00;98994.09;6320364;20;4429406;-59
2022/11/16 00:57:05;;;;;;;;;83.50;59.00;;;;;7.58;100.00;98993.78;6317293;20;4406508;-59
2022/11/16 00:59:35;;;;;;;;;77.33;57.33;;;;;7.52;100.00;98997.69;6313351;20;3645288;-59
2022/11/16 01:02:05;;;;;;;;;85.33;61.00;;;;;7.57;100.00;98992.09;6283561;20;3660688;-59
2022/11/16 01:04:34;;;;;;;;;88.33;64.67;;;;;7.45;100.00;98983.88;6283649;20;3655577;-59
2022/11/16 01:07:03;;;;;;;;;87.25;61.75;;;;;7.53;100.00;98975.41;6282468;20;4414833;-59
2022/11/16 01:09:33;;;;;;;;;84.67;58.33;;;;;7.49;100.00;98965.84;6308086;20;3669019;-59
2022/11/16 01:12:09;;;;;;;;;56.33;48.00;;;;;7.60;100.00;98962.50;6281508;20;2851476;-59
2022/11/16 01:14:44;;;;;;;;;80.50;57.50;;;;;7.46;100.00;98960.69;6319976;20;4406471;-58
2022/11/16 01:17:14;;;;;;;;;81.00;57.00;;;;;7.59;100.00;98948.31;6314323;20;3647574;-59
2022/11/16 01:19:44;;;;;;;;;79.00;59.33;;;;;7.53;100.00;98946.03;6281016;20;3642986;-59
2022/11/16 01:22:13;;;;;;;;;79.67;57.00;;;;;7.55;100.00;98936.06;6282473;20;3641944;-59
2022/11/16 01:24:46;;;;;;;;;87.00;60.33;;;;;7.55;100.00;98940.56;6282859;20;3660802;-59
2022/11/16 01:27:15;;;;;;;;;84.25;59.75;;;;;7.40;100.00;98942.38;6282029;20;4422504;-59
2022/11/16 01:29:44;;;;;;;;;88.00;62.00;;;;;7.55;100.00;98938.75;6312006;20;1939887;-58
2022/11/16 01:32:14;;;;;;;;;81.00;61.33;;;;;7.57;100.00;98926.16;6284281;20;3655447;-59
2022/11/16 01:34:43;;;;;;;;;89.67;65.67;;;;;7.54;100.00;98938.84;6282977;20;3666905;-59
2022/11/16 01:37:13;;;;;;;;;88.33;61.33;;;;;7.60;100.00;98931.31;6279539;20;3652418;-59
2022/11/16 01:39:43;;;;;;;;;87.00;62.00;;;;;7.68;100.00;98921.00;6279821;20;3660667;-58
2022/11/16 01:42:25;;;;;;;;;88.75;60.75;;;;;7.45;100.00;98919.78;6287029;20;4421289;-59
2022/11/16 01:45:29;;;;;;;;;84.75;60.25;;;;;7.51;100.00;98921.22;6316196;20;3651509;-59
2022/11/16 01:47:59;;;;;;;;;81.25;61.25;;;;;7.48;100.00;98911.56;6309309;20;3649541;-58
2022/11/16 01:50:29;;;;;;;;;82.67;62.00;;;;;7.52;100.00;98903.38;6312453;20;3650257;-59
2022/11/16 01:53:04;;;;;;;;;79.00;57.00;;;;;7.61;100.00;98914.34;6281108;20;3661756;-59
2022/11/16 01:55:36;;;;;;;;;85.75;58.00;;;;;7.59;100.00;98896.69;6281318;20;4418961;-59
2022/11/16 01:58:06;;;;;;;;;86.25;62.25;;;;;7.56;100.00;98894.22;6306495;20;4414822;-59
2022/11/16 02:00:36;;;;;;;;;77.00;57.33;;;;;7.60;100.00;98895.72;6315247;20;3652390;-59
2022/11/16 02:03:06;;;;;;;;;89.33;60.33;;;;;7.57;100.00;98895.94;6312850;20;3651295;-58
2022/11/16 02:06:19;;;;;;;;;83.50;59.75;;;;;7.66;100.00;98896.22;6286173;20;3656566;-58
2022/11/16 02:09:52;;;;;;;;;83.25;60.00;;;;;7.70;100.00;98884.38;6316179;20;4420025;-59
2022/11/16 02:12:55;;;;;;;;;80.25;57.00;;;;;7.66;100.00;98877.53;6315867;20;3648274;-59
2022/11/16 02:15:52;;;;;;;;;85.75;59.75;;;;;7.65;100.00;98875.78;6315032;20;4397131;-59
2022/11/16 02:18:34;;;;;;;;;84.00;60.33;;;;;7.61;100.00;98868.94;6313532;20;3666950;-59
2022/11/16 02:21:21;;;;;;;;;77.50;56.00;;;;;7.70;100.00;98864.81;6285215;20;3642534;-60
2022/11/16 02:24:25;;;;;;;;;89.00;60.50;;;;;7.41;100.00;98859.47;6315917;20;4416956;-59
2022/11/16 02:28:10;;;;;;;;;82.50;59.50;;;;;7.45;100.00;98862.81;6315027;20;4413260;-59
2022/11/16 02:30:48;;;;;;;;;84.33;57.00;;;;;7.50;100.00;98857.19;6312654;20;3640923;-58
2022/11/16 02:33:26;;;;;;;;;78.33;59.00;;;;;7.53;100.00;98852.53;6277068;20;3642054;-59
2022/11/16 02:35:59;;;;;;;;;80.00;58.67;;;;;7.47;100.00;98850.22;6279200;20;3657547;-59
2022/11/16 02:38:37;;;;;;;;;80.67;59.00;;;;;7.59;100.00;98854.81;6276064;20;3644007;-58
2022/11/16 02:41:20;;;;;;;;;88.00;60.00;;;;;7.60;100.00;98848.50;6278626;20;2791057;-59
2022/11/16 02:44:02;;;;;;;;;86.00;58.00;;;;;7.60;100.00;98856.50;6312368;20;4412984;-59
2022/11/16 02:46:40;;;;;;;;;85.67;59.67;;;;;7.48;100.00;98850.13;6309211;20;3663821;-59
2022/11/16 02:49:17;;;;;;;;;84.00;60.00;;;;;7.57;100.00;98848.69;6282952;20;4419051;-59
2022/11/16 02:51:47;;;;;;;;;90.00;60.50;;;;;7.42;100.00;98836.28;6314736;20;4417293;-59
2022/11/16 02:54:21;;;;;;;;;84.25;60.75;;;;;7.45;100.00;98836.09;6310297;20;3649382;-59
2022/11/16 02:57:02;;;;;;;;;79.67;59.67;;;;;7.50;100.00;98834.00;6311097;20;3655506;-59
2022/11/16 02:59:50;;;;;;;;;78.67;59.00;;;;;7.55;100.00;98834.56;6280347;20;3652359;-59
2022/11/16 03:02:47;;;;;;;;;82.00;58.00;;;;;7.47;100.00;98832.38;6280158;20;3662854;-59
2022/11/16 03:05:51;;;;;;;;;83.33;59.67;;;;;7.61;100.00;98826.19;6280726;20;3655468;-59
2022/11/16 03:08:37;;;;;;;;;84.00;62.67;;;;;7.47;100.00;98831.53;6275949;20;3666950;-59
2022/11/16 03:14:04;;;;;;;;;87.50;59.00;;;;;7.54;100.00;98821.31;6310411;20;1931666;-59
2022/11/16 03:16:40;;;;;;;;;82.25;60.00;;;;;7.73;100.00;98815.66;6282204;20;4412847;-58
2022/11/16 03:19:19;;;;;;;;;86.00;60.00;;;;;7.58;100.00;98806.81;6315049;20;4395013;-59
2022/11/16 03:22:38;;;;;;;;;84.75;62.00;;;;;7.67;100.00;98812.44;6312262;20;4409710;-59
2022/11/16 03:25:15;;;;;;;;;86.67;59.00;;;;;7.58;100.00;98815.69;6309255;20;3664821;-59
2022/11/16 03:27:56;;;;;;;;;86.00;61.50;;;;;7.65;100.00;98814.34;6272316;20;1922248;-59
2022/11/16 03:30:31;;;;;;;;;87.00;61.00;;;;;7.82;100.00;98810.59;6279952;20;4416907;-60
2022/11/16 03:33:21;;;;;;;;;88.50;64.75;;;;;7.50;100.00;98807.28;6315374;20;4423171;-60
2022/11/16 03:36:15;;;;;;;;;64.33;50.67;;;;;7.75;100.00;98801.25;6310520;20;3627358;-59
2022/11/16 03:38:49;;;;;;;;;84.67;59.33;;;;;7.64;100.00;98801.09;6309939;20;3663833;-59
2022/11/16 03:41:20;;;;;;;;;88.00;62.50;;;;;7.70;100.00;98796.19;6276211;20;1938855;-59
2022/11/16 03:43:52;;;;;;;;;82.33;57.67;;;;;7.59;100.00;98796.03;6278159;20;3660671;-59
2022/11/16 03:46:21;;;;;;;;;79.00;57.67;;;;;7.57;100.00;98795.28;6275638;20;3646146;-59
2022/11/16 03:48:58;;;;;;;;;81.33;56.67;;;;;7.31;100.00;98782.72;6277322;20;3655635;-59
2022/11/16 03:51:28;;;;;;;;;84.67;62.33;;;;;7.43;100.00;98784.63;6277508;20;3668990;-59
2022/11/16 03:53:57;;;;;;;;;86.00;61.67;;;;;7.62;100.00;98787.81;6275984;20;3662770;-59
2022/11/16 03:56:27;;;;;;;;;91.67;64.33;;;;;7.51;100.00;98785.00;6279658;20;3672107;-59
2022/11/16 03:58:55;;;;;;;;;82.50;61.50;;;;;7.43;100.00;98773.94;6284477;20;1920185;-59
2022/11/16 04:01:24;;;;;;;;;83.25;58.75;;;;;7.43;100.00;98771.25;6278413;20;4422254;-59
2022/11/16 04:03:52;;;;;;;;;93.00;61.00;;;;;7.40;100.00;98776.81;6309787;20;1933602;-60
2022/11/16 04:26:02;;;;;;;;;83.75;58.00;;;;;7.57;100.00;98751.69;6311185;20;4412439;-59
2022/11/16 04:28:34;;;;;;;;;86.75;59.25;;;;;7.54;100.00;98747.38;6311252;20;4411104;-59
2022/11/16 04:39:29;;;;;;;;;84.00;59.33;;;;;7.57;100.00;98747.19;6279183;20;3656552;-59
2022/11/16 04:42:14;;;;;;;;;79.00;56.25;;;;;7.65;100.00;98733.34;6279237;20;4403376;-59
2022/11/16 04:47:32;;;;;;;;;81.67;56.67;;;;;7.54;100.00;98715.34;6308432;20;3665991;-59
2022/11/16 04:50:03;;;;;;;;;87.67;62.33;;;;;7.82;100.00;98729.56;6280072;20;3659645;-59
2022/11/16 04:52:32;;;;;;;;;82.50;59.50;;;;;7.79;100.00;98733.28;6282665;20;4414870;-59
2022/11/16 04:55:02;;;;;;;;;87.00;61.50;;;;;7.59;100.00;98728.41;6312931;20;4408577;-59
2022/11/16 04:57:31;;;;;;;;;89.00;62.00;;;;;7.75;100.00;98733.59;6309243;20;3672158;-59
2022/11/16 05:00:03;;;;;;;;;84.00;59.33;;;;;7.74;100.00;98727.41;6278861;20;3663815;-59
2022/11/16 05:02:33;;;;;;;;;84.00;58.33;;;;;7.64;100.00;98731.63;6309774;20;3658807;-59
2022/11/16 05:05:00;;;;;;;;;90.50;64.50;;;;;7.58;100.00;98732.91;6279516;20;1933666;-59
2022/11/16 05:07:30;;;;;;;;;81.67;60.00;;;;;7.57;100.00;98733.84;6275071;20;3632642;-59
2022/11/16 05:10:00;;;;;;;;;89.33;59.67;;;;;7.72;100.00;98733.81;6279611;20;3667980;-59
2022/11/16 05:12:30;;;;;;;;;90.67;61.33;;;;;7.67;100.00;98726.94;6277975;20;3663821;-59
2022/11/16 05:15:00;;;;;;;;;86.00;60.75;;;;;7.67;100.00;98734.97;6280361;20;4414828;-60
2022/11/16 05:17:30;;;;;;;;;83.75;60.25;;;;;7.84;100.00;98727.66;6307432;20;4405407;-59
2022/11/16 05:22:58;;;;;;;;;83.00;58.00;;;;;7.91;100.00;98723.63;6274302;20;3645127;-58
2022/11/16 05:25:27;;;;;;;;;86.33;64.33;;;;;7.85;100.00;98729.38;6279433;20;3670465;-60
2022/11/16 05:28:02;;;;;;;;;90.50;64.00;;;;;7.88;100.00;98721.16;6273736;20;1929645;-59
2022/11/16 05:30:33;;;;;;;;;100.75;68.50;;;;;7.75;100.00;98720.25;6278635;20;3690990;-60
2022/11/16 05:33:03;;;;;;;;;111.50;78.00;;;;;7.46;100.00;98717.66;6280808;20;3698342;-60
2022/11/16 05:35:33;;;;;;;;;89.75;68.50;;;;;7.54;100.00;98709.16;6316538;20;4417957;-59
2022/11/16 05:38:02;;;;;;;;;91.50;64.75;;;;;7.64;100.00;98707.59;6312782;20;4423157;-59
2022/11/16 05:40:32;;;;;;;;;86.33;60.33;;;;;7.88;100.00;98702.44;6313200;20;4292946;-59
2022/11/16 05:43:01;;;;;;;;;88.33;65.00;;;;;7.69;100.00;98697.47;6314421;20;3663826;-59
2022/11/16 05:45:31;;;;;;;;;88.33;65.67;;;;;7.89;100.00;98696.13;6282440;20;3676303;-59
2022/11/16 05:47:58;;;;;;;;;96.50;66.50;;;;;7.83;100.00;98693.88;6278431;20;1930540;-59
2022/11/16 05:50:29;;;;;;;;;89.50;67.50;;;;;7.93;100.00;98688.78;6282685;20;3672134;-59
2022/11/16 05:52:58;;;;;;;;;80.67;61.33;;;;;7.87;100.00;98690.03;6314617;20;3645053;-59
2022/11/16 05:55:28;;;;;;;;;88.00;65.33;;;;;7.83;100.00;98694.72;6277560;20;3674329;-59
2022/11/16 05:57:57;;;;;;;;;86.00;59.75;;;;;7.77;100.00;98686.28;6282012;20;4413774;-59
2022/11/16 06:00:25;;;;;;;;;83.50;64.00;;;;;7.70;100.00;98681.31;6304354;20;1928689;-59
2022/11/16 06:02:55;;;;;;;;;89.25;66.00;;;;;7.91;100.00;98686.19;6284779;20;4429507;-58
2022/11/16 06:05:25;;;;;;;;;85.50;62.25;;;;;7.85;100.00;98687.47;6315752;20;4420071;-59
2022/11/16 06:07:54;;;;;;;;;90.00;64.67;;;;;7.78;100.00;98680.81;6306765;20;3671117;-59
2022/11/16 06:10:24;;;;;;;;;84.50;60.50;;;;;7.90;100.00;98685.34;6280938;20;3612911;-60
2022/11/16 06:12:53;;;;;;;;;86.00;60.00;;;;;7.95;100.00;98684.16;6315591;20;3661843;-60
2022/11/16 06:15:23;;;;;;;;;87.50;66.00;;;;;7.94;100.00;98677.97;6283655;20;4433609;-59
2022/11/16 06:17:52;;;;;;;;;81.67;56.00;;;;;7.91;100.00;98675.50;6313177;20;3658654;-59
2022/11/16 06:20:22;;;;;;;;;88.00;61.25;;;;;7.93;100.00;98678.94;6282734;20;4412797;-60
2022/11/16 06:22:49;;;;;;;;;96.00;71.50;;;;;7.92;100.00;98671.88;6312268;20;1932655;-59
2022/11/16 06:25:19;;;;;;;;;97.25;71.75;;;;;7.94;100.00;98675.31;6279998;20;4437901;-59
2022/11/16 06:27:47;;;;;;;;;99.00;66.00;;;;;8.00;100.00;98674.03;6308659;20;1934802;-59
2022/11/16 06:30:17;;;;;;;;;104.00;81.00;;;;;8.00;100.00;98682.91;6281222;20;3713928;-59
2022/11/16 06:32:48;;;;;;;;;103.00;84.25;;;;;7.89;100.00;98683.63;6315643;20;4454387;-60
2022/11/16 06:35:16;;;;;;;;;105.50;81.00;;;;;7.85;100.00;98678.59;6273086;20;1935902;-59
2022/11/16 06:37:44;;;;;;;;;124.00;89.50;;;;;7.94;100.00;98686.00;6274349;20;1942100;-59
2022/11/16 06:40:12;;;;;;;;;121.00;98.00;;;;;7.93;100.00;98684.28;6276335;20;1944144;-58
2022/11/16 06:42:42;;;;;;;;;119.00;93.00;;;;;7.96;100.00;98678.72;6281135;20;3660819;-59
2022/11/16 06:45:12;;;;;;;;;384.00;303.75;;;;;8.03;100.00;98680.03;6279594;20;4537898;-59
2022/11/16 06:47:42;;;;;;;;;142.00;107.33;;;;;8.17;100.00;98678.25;6307713;20;3715936;-60
2022/11/16 06:50:11;;;;;;;;;109.00;81.33;;;;;8.10;100.00;98669.78;6281202;20;3709680;-59
2022/11/16 06:52:41;;;;;;;;;84.33;60.33;;;;;7.86;100.00;98656.25;6276268;20;3661792;-59
2022/11/16 06:55:10;;;;;;;;;94.25;67.50;;;;;7.99;100.00;98658.97;6280600;20;4414855;-59
2022/11/16 06:57:41;;;;;;;;;429.00;338.00;;;;;8.01;100.00;98665.06;6312426;20;4529390;-59
2022/11/16 07:00:14;;;;;;;;;457.00;327.60;;;;;8.07;100.00;98665.50;6279431;20;5327311;-59
2022/11/16 07:02:43;;;;;;;;;106.67;84.67;;;;;7.99;100.00;98657.13;6315490;20;3710733;-59
2022/11/16 07:05:15;;;;;;;;;362.43;240.71;;;;;7.95;100.00;98662.78;6290433;20;2533605;-59
2022/11/16 07:07:43;;;;;;;;;125.00;88.50;;;;;7.81;100.00;98659.22;6307838;20;1942211;-59
2022/11/16 07:10:13;;;;;;;;;125.25;83.00;;;;;7.84;100.00;98658.16;6281316;20;4476388;-59
2022/11/16 07:12:41;;;;;;;;;104.00;84.00;;;;;7.88;100.00;98654.34;6309068;20;1943113;-60
2022/11/16 07:15:10;;;;;;;;;104.50;69.50;;;;;7.68;100.00;98647.66;6281697;20;2731568;-60
2022/11/16 07:17:41;;;;;;;;;87.67;67.00;;;;;7.92;100.00;98639.78;6279748;20;3653394;-60
2022/11/16 07:20:10;;;;;;;;;89.50;66.00;;;;;8.12;100.00;98641.97;6278253;20;1940136;-59
2022/11/16 07:22:38;;;;;;;;;91.00;67.00;;;;;8.02;100.00;98646.22;6273150;20;1931554;-59
2022/11/16 07:25:09;;;;;;;;;101.75;70.00;;;;;7.94;100.00;98640.56;6280523;20;3680601;-60
2022/11/16 07:27:38;;;;;;;;;155.00;123.00;;;;;8.17;100.00;98635.47;6281224;20;2844022;-60
2022/11/16 07:30:08;;;;;;;;;96.33;69.67;;;;;8.08;100.00;98629.81;6278897;20;3675280;-59
2022/11/16 07:32:39;;;;;;;;;109.75;77.50;;;;;8.17;100.00;98636.31;6282529;20;4472199;-59
2022/11/16 07:35:08;;;;;;;;;86.00;60.00;;;;;8.08;100.00;98627.13;6314062;20;4402408;-60
2022/11/16 07:37:38;;;;;;;;;151.67;128.67;;;;;8.11;100.00;98628.72;6311408;20;3732770;-60
2022/11/16 07:40:10;;;;;;;;;132.00;106.57;;;;;8.13;100.00;98632.97;6291692;20;2533620;-59
2022/11/16 07:42:40;;;;;;;;;88.75;62.25;;;;;8.28;100.00;98616.88;6279035;20;4425212;-60
2022/11/16 07:45:12;;;;;;;;;85.50;61.50;;;;;8.21;100.00;98620.91;6309459;20;1933694;-60
2022/11/16 07:47:40;;;;;;;;;181.00;157.50;;;;;8.10;100.00;98627.84;6271129;20;1958694;-59
2022/11/16 07:50:10;;;;;;;;;102.25;71.50;;;;;8.12;100.00;98617.06;6281680;20;3684620;-59
2022/11/16 07:52:40;;;;;;;;;86.67;65.33;;;;;8.26;100.00;98616.09;6277393;20;3659745;-59
2022/11/16 07:55:10;;;;;;;;;81.00;60.00;;;;;8.20;100.00;98600.50;6277845;20;3649262;-60
2022/11/16 07:57:40;;;;;;;;;88.67;65.33;;;;;8.21;100.00;98612.88;6276996;20;3661746;-60
2022/11/16 08:00:10;;;;;;;;;88.67;67.67;;;;;8.31;100.00;98598.78;6278626;20;3680464;-59
2022/11/16 08:02:39;;;;;;;;;75.33;58.00;;;;;8.29;100.00;98611.41;6279707;20;3623190;-59
2022/11/16 08:05:09;;;;;;;;;91.25;68.25;;;;;8.38;100.00;98609.91;6314468;20;4425384;-59
2022/11/16 08:07:37;;;;;;;;;102.00;84.50;;;;;8.42;100.00;98611.44;6305759;20;1936786;-60
2022/11/16 08:10:08;;;;;;;;;104.25;82.00;;;;;8.26;100.00;98611.59;6282017;20;4456589;-60
2022/11/16 08:12:36;;;;;;;;;99.50;78.00;;;;;8.32;100.00;98613.00;6276178;20;1938920;-59
2022/11/16 08:15:04;;;;;;;;;203.00;165.50;;;;;8.29;100.00;98615.88;6273470;20;1960724;-60
2022/11/16 08:17:35;;;;;;;;;93.00;79.25;;;;;8.42;100.00;98618.59;6274237;20;3684854;-60
2022/11/16 08:20:08;;;;;;;;;98.25;79.75;;;;;8.28;100.00;98619.53;6309187;20;4438807;-60
2022/11/16 08:22:38;;;;;;;;;86.00;68.75;;;;;8.28;100.00;98609.69;6312732;20;4423198;-59
2022/11/16 08:25:06;;;;;;;;;103.50;88.50;;;;;8.51;100.00;98605.44;6304382;20;1949381;-60
2022/11/16 08:27:35;;;;;;;;;89.00;69.50;;;;;8.39;100.00;98595.59;6270227;20;1944154;-59
2022/11/16 08:30:08;;;;;;;;;88.67;68.33;;;;;8.30;100.00;98593.56;6277457;20;3676322;-60
2022/11/16 08:32:40;;;;;;;;;87.67;64.33;;;;;8.44;100.00;98596.13;6277293;20;3658573;-59
2022/11/16 08:35:10;;;;;;;;;88.33;64.33;;;;;8.34;100.00;98597.69;6276229;20;3673262;-60
2022/11/16 08:37:38;;;;;;;;;123.00;100.00;;;;;8.59;100.00;98601.38;6272664;20;1949350;-60
2022/11/16 08:40:08;;;;;;;;;98.00;74.67;;;;;8.63;100.00;98601.03;6281470;20;3671095;-60
2022/11/16 08:42:38;;;;;;;;;83.67;61.67;;;;;8.40;100.00;98593.78;6281075;20;3653392;-59
2022/11/16 08:45:12;;;;;;;;;84.00;61.33;;;;;8.51;100.00;98605.44;6284328;20;3669009;-59
2022/11/16 08:47:42;;;;;;;;;125.67;84.00;;;;;8.46;100.00;98590.69;6282815;20;3699671;-60
2022/11/16 08:50:11;;;;;;;;;85.50;62.00;;;;;8.59;100.00;98596.88;6312074;20;1929498;-60
2022/11/16 08:52:39;;;;;;;;;109.50;84.00;;;;;8.62;100.00;98596.66;6279004;20;1951442;-59
2022/11/16 08:55:09;;;;;;;;;86.00;59.67;;;;;8.42;100.00;98595.38;6284137;20;3667976;-59
2022/11/16 08:57:37;;;;;;;;;84.50;61.00;;;;;8.61;100.00;98599.44;6280072;20;1933779;-59
2022/11/16 09:00:10;;;;;;;;;100.75;75.75;;;;;8.52;100.00;98591.09;6282589;20;4452428;-59
2022/11/16 09:02:39;;;;;;;;;149.67;110.00;;;;;8.67;100.00;98593.66;6280773;20;3715849;-60
2022/11/16 09:05:10;;;;;;;;;99.67;80.33;;;;;8.59;100.00;98588.00;6282763;20;3690889;-59
2022/11/16 09:07:42;;;;;;;;;85.25;60.75;;;;;8.42;100.00;98595.38;6315422;20;4425353;-60
2022/11/16 09:10:11;;;;;;;;;86.00;62.50;;;;;8.57;100.00;98591.63;6314463;20;1929603;-59
2022/11/16 09:12:40;;;;;;;;;188.00;140.00;;;;;8.63;100.00;98592.16;6279290;20;1950432;-59
2022/11/16 09:15:10;;;;;;;;;95.67;79.33;;;;;8.78;100.00;98591.91;6287540;20;3667998;-60
2022/11/16 09:17:39;;;;;;;;;85.50;63.75;;;;;8.53;100.00;98591.94;6289403;20;4407544;-58
2022/11/16 09:20:08;;;;;;;;;101.50;87.50;;;;;8.56;100.00;98595.28;6315718;20;1943151;-59
2022/11/16 09:22:38;;;;;;;;;121.25;99.75;;;;;8.73;100.00;98595.88;6285925;20;4478403;-59
2022/11/16 09:25:09;;;;;;;;;87.67;73.00;;;;;8.71;100.00;98587.97;6285755;20;3682622;-60
2022/11/16 09:27:39;;;;;;;;;89.00;72.50;;;;;8.61;100.00;98588.72;6290721;20;4427379;-59
2022/11/16 09:30:10;;;;;;;;;79.75;60.50;;;;;8.84;100.00;98582.59;6320325;20;4410666;-60
2022/11/16 09:32:40;;;;;;;;;88.00;70.50;;;;;8.59;100.00;98585.31;6321721;20;4422085;-59
2022/11/16 09:35:08;;;;;;;;;87.00;68.00;;;;;8.78;100.00;98585.72;6319463;20;1941033;-59
2022/11/16 09:37:38;;;;;;;;;87.67;62.67;;;;;8.77;100.00;98582.19;6285214;20;3667010;-59
2022/11/16 09:40:10;;;;;;;;;83.00;61.00;;;;;8.72;100.00;98570.94;6290031;20;3651303;-59
2022/11/16 09:42:57;;;;;;;;;80.67;62.00;;;;;8.91;100.00;98574.97;6287514;20;3659684;-59
2022/11/16 09:45:54;;;;;;;;;84.00;64.33;;;;;8.87;100.00;98566.28;6287633;20;3653508;-59
2022/11/16 09:48:24;;;;;;;;;81.50;61.75;;;;;9.01;100.00;98566.16;6285429;20;4410668;-60
2022/11/16 09:51:07;;;;;;;;;88.75;62.75;;;;;8.81;100.00;98553.38;6319516;20;4417948;-59
2022/11/16 09:54:01;;;;;;;;;85.75;59.75;;;;;9.06;100.00;98559.59;6317095;20;4418095;-59
2022/11/16 09:56:36;;;;;;;;;86.50;63.00;;;;;8.84;100.00;98553.13;6317680;20;4403504;-59
2022/11/16 09:59:22;;;;;;;;;89.00;67.50;;;;;9.08;100.00;98549.63;6313022;20;1942681;-58
2022/11/16 10:02:36;;;;;;;;;83.00;62.50;;;;;8.72;100.00;98535.31;6288338;20;4419087;-59
2022/11/16 10:05:51;;;;;;;;;86.00;60.00;;;;;8.97;100.00;98537.88;6319866;20;4421098;-59
2022/11/16 10:08:50;;;;;;;;;86.50;64.75;;;;;8.81;100.00;98537.31;6316411;20;4418996;-59
2022/11/16 10:11:49;;;;;;;;;82.75;58.50;;;;;8.79;100.00;98529.41;6319770;20;4404380;-58
2022/11/16 10:15:13;;;;;;;;;86.50;63.00;;;;;8.91;100.00;98516.94;6318814;20;4420045;-59
2022/11/16 10:18:06;;;;;;;;;82.75;62.75;;;;;8.88;100.00;98522.53;6319510;20;4403336;-58
2022/11/16 10:20:52;;;;;;;;;88.00;60.00;;;;;9.02;100.00;98518.81;6318805;20;1934828;-59
2022/11/16 10:23:55;;;;;;;;;91.00;60.00;;;;;8.70;100.00;98507.81;6280919;20;1932733;-59
2022/11/16 10:26:52;;;;;;;;;82.75;59.25;;;;;8.86;100.00;98505.72;6286943;20;4408814;-59
2022/11/16 10:30:15;;;;;;;;;87.50;59.50;;;;;8.98;100.00;98502.13;6312518;20;1940148;-58
2022/11/16 10:33:01;;;;;;;;;86.00;62.33;;;;;9.01;100.00;98501.91;6281910;20;3677329;-59
2022/11/16 10:35:52;;;;;;;;;80.67;60.67;;;;;9.18;100.00;98495.28;6285353;20;3647129;-59
2022/11/16 10:38:29;;;;;;;;;82.75;60.25;;;;;9.13;100.00;98493.91;6284658;20;4416909;-59
2022/11/16 10:41:35;;;;;;;;;87.00;62.00;;;;;9.13;100.00;98483.22;6319157;20;3668098;-59
2022/11/16 10:44:44;;;;;;;;;84.00;60.00;;;;;9.14;100.00;98477.75;6282463;20;3664961;-59
2022/11/16 10:48:21;;;;;;;;;80.25;58.50;;;;;9.19;100.00;98478.25;6283555;20;4411671;-58
2022/11/16 10:50:52;;;;;;;;;80.25;61.75;;;;;9.57;100.00;98471.78;6316515;20;4400214;-59
2022/11/16 10:53:39;;;;;;;;;83.75;59.50;;;;;9.40;100.00;98465.06;6314354;20;4410717;-59
2022/11/16 10:56:29;;;;;;;;;89.50;66.00;;;;;9.43;100.00;98466.66;6314064;20;1929542;-58
2022/11/16 10:59:09;;;;;;;;;83.00;58.67;;;;;9.56;100.00;98459.38;6282453;20;3658578;-59
2022/11/16 11:01:54;;;;;;;;;85.67;59.33;;;;;9.30;100.00;98465.88;6284499;20;3656632;-59
2022/11/16 11:04:31;;;;;;;;;80.50;61.25;;;;;9.25;100.00;98454.66;6284349;20;4407026;-59
2022/11/16 11:07:28;;;;;;;;;82.75;58.25;;;;;9.52;100.00;98440.97;6315751;20;4417930;-59
2022/11/16 11:09:58;;;;;;;;;72.33;53.00;;;;;9.14;100.00;98450.13;6315807;20;3628408;-59
2022/11/16 11:12:36;;;;;;;;;81.25;55.00;;;;;9.34;100.00;98444.09;6318291;20;4404452;-59
2022/11/16 11:15:10;;;;;;;;;140.00;108.50;;;;;9.30;100.00;98433.75;6310421;20;1946220;-60
2022/11/16 11:17:46;;;;;;;;;76.67;57.33;;;;;9.60;100.00;98427.84;6280922;20;3661687;-59
2022/11/16 11:20:21;;;;;;;;;88.50;67.00;;;;;9.56;100.00;98437.09;6279597;20;1931483;-60
2022/11/16 11:23:04;;;;;;;;;83.67;60.33;;;;;9.54;100.00;98433.69;6282883;20;3658764;-60
2022/11/16 11:25:56;;;;;;;;;82.25;57.75;;;;;9.29;100.00;98424.84;6284206;20;4411447;-60
2022/11/16 11:28:36;;;;;;;;;86.25;59.50;;;;;9.41;100.00;98418.53;6314810;20;4421155;-59
2022/11/16 11:31:26;;;;;;;;;80.75;58.00;;;;;9.60;100.00;98411.75;6312010;20;4416029;-59
2022/11/16 11:34:22;;;;;;;;;82.75;58.50;;;;;9.59;100.00;98410.06;6317350;20;4409699;-59
2022/11/16 11:37:05;;;;;;;;;77.50;56.25;;;;;9.52;100.00;98400.78;6311520;20;3647184;-59
2022/11/16 11:39:36;;;;;;;;;81.33;57.33;;;;;9.25;100.00;98401.94;6311854;20;3666912;-59
2022/11/16 11:42:12;;;;;;;;;80.75;58.50;;;;;9.64;100.00;98405.19;6280449;20;4419048;-58
2022/11/16 11:45:07;;;;;;;;;76.75;55.50;;;;;9.57;100.00;98401.28;6317748;20;3628401;-57
2022/11/16 11:47:55;;;;;;;;;82.50;57.50;;;;;9.50;100.00;98394.69;6315729;20;4406567;-57
2022/11/16 11:50:54;;;;;;;;;76.33;54.00;;;;;9.18;100.00;98387.31;6317443;20;3625285;-60
2022/11/16 11:53:57;;;;;;;;;82.75;56.25;;;;;9.59;100.00;98399.34;6316139;20;4416876;-59
2022/11/16 11:56:32;;;;;;;;;81.00;55.50;;;;;9.53;100.00;98399.81;6316083;20;4416949;-57
2022/11/16 11:59:04;;;;;;;;;81.75;62.00;;;;;9.15;100.00;98395.59;6316632;20;4409703;-57
2022/11/16 12:02:27;;;;;;;;;77.33;54.33;;;;;9.43;100.00;98392.50;6316529;20;3631508;-57
2022/11/16 12:06:04;;;;;;;;;82.00;59.00;;;;;9.08;100.00;98399.69;6279324;20;3653404;-57
2022/11/16 12:08:55;;;;;;;;;73.33;58.00;;;;;9.33;100.00;98393.31;6276536;20;3607626;-58
2022/11/16 12:12:18;;;;;;;;;75.50;54.50;;;;;9.32;100.00;98388.94;6315391;20;4381559;-58
2022/11/16 12:15:28;;;;;;;;;77.75;57.00;;;;;9.29;100.00;98394.53;6315224;20;3629667;-58
2022/11/16 12:18:51;;;;;;;;;81.00;59.50;;;;;9.18;100.00;98390.00;6311949;20;1926500;-59
2022/11/16 12:22:28;;;;;;;;;82.00;58.67;;;;;9.14;100.00;98394.75;6283334;20;3647101;-59